createdAt,value
2023-05-17T00:02:15.341Z,4.85
2023-05-17T00:04:48.975Z,4.75
2023-05-17T00:07:19.819Z,5.15
2023-05-17T00:09:50.716Z,4.43
2023-05-17T00:12:21.520Z,5.05
2023-05-17T00:14:53.879Z,5.22
2023-05-17T00:17:24.616Z,4.85
2023-05-17T00:19:58.222Z,5.10
2023-05-17T00:22:29.016Z,5.13
2023-05-17T00:24:59.914Z,5.05
2023-05-17T00:27:30.767Z,4.88
2023-05-17T00:30:01.794Z,4.60
2023-05-17T00:32:35.916Z,5.20
2023-05-17T00:35:10.367Z,5.65
2023-05-17T00:37:41.492Z,5.00
2023-05-17T00:40:14.076Z,4.63
2023-05-17T00:42:45.115Z,4.07
2023-05-17T00:45:16.462Z,3.70
2023-05-17T00:47:47.563Z,3.97
2023-05-17T00:50:21.421Z,3.70
2023-05-17T00:55:24.777Z,4.30
2023-05-17T00:57:56.344Z,5.07
2023-05-17T01:00:27.587Z,4.05
2023-05-17T01:02:58.406Z,5.80
2023-05-17T01:05:32.822Z,5.05
2023-05-17T01:08:03.576Z,4.37
2023-05-17T01:10:43.390Z,5.97
2023-05-17T01:13:21.630Z,5.07
2023-05-17T01:16:00.353Z,4.80
2023-05-17T01:18:38.937Z,4.63
2023-05-17T01:21:29.473Z,4.70
2023-05-17T01:24:20.612Z,4.32
2023-05-17T01:26:56.279Z,5.05
2023-05-17T01:29:32.036Z,4.90
2023-05-17T01:34:33.616Z,4.72
2023-05-17T01:37:04.541Z,4.53
2023-05-17T01:39:35.456Z,4.20
2023-05-17T01:42:17.170Z,4.57
2023-05-17T01:44:54.077Z,4.78
2023-05-17T01:47:36.997Z,5.30
2023-05-17T01:50:11.018Z,4.82
2023-05-17T01:52:47.309Z,4.03
2023-05-17T01:55:26.707Z,5.00
2023-05-17T01:58:01.054Z,4.72
2023-05-17T02:00:33.447Z,5.65
2023-05-17T02:03:04.482Z,5.40
2023-05-17T02:05:35.484Z,5.60
2023-05-17T02:08:06.340Z,4.75
2023-05-17T02:10:37.221Z,4.95
2023-05-17T02:13:10.875Z,4.90
2023-05-17T02:15:41.923Z,5.28
2023-05-17T02:18:13.808Z,4.78
2023-05-17T02:21:04.465Z,4.53
2023-05-17T02:23:35.350Z,5.20
2023-05-17T02:26:06.208Z,5.35
2023-05-17T02:28:40.762Z,4.85
2023-05-17T02:31:11.665Z,5.40
2023-05-17T02:33:42.722Z,4.50
2023-05-17T02:36:13.624Z,5.05
2023-05-17T02:38:44.482Z,5.20
2023-05-17T02:41:16.524Z,4.90
2023-05-17T02:43:50.233Z,4.95
2023-05-17T02:46:21.844Z,5.10
2023-05-17T02:48:52.869Z,4.97
2023-05-17T02:51:23.652Z,5.97
2023-05-17T02:53:54.629Z,6.28
2023-05-17T02:56:25.588Z,5.43
2023-05-17T02:59:01.684Z,5.50
2023-05-17T03:01:32.894Z,4.75
2023-05-17T03:04:04.777Z,5.35
2023-05-17T03:06:35.827Z,5.32
2023-05-17T03:09:07.359Z,5.38
2023-05-17T03:11:38.688Z,5.00
2023-05-17T03:14:17.163Z,5.40
2023-05-17T03:16:47.936Z,6.35
2023-05-17T03:19:18.997Z,6.00
2023-05-17T03:21:50.460Z,6.22
2023-05-17T03:24:22.479Z,5.80
2023-05-17T03:26:54.569Z,6.63
2023-05-17T03:29:28.924Z,6.65
2023-05-17T03:31:59.697Z,6.93
2023-05-17T03:34:30.855Z,7.32
2023-05-17T03:37:01.657Z,6.20
2023-05-17T03:39:32.654Z,5.93
2023-05-17T03:42:03.869Z,5.85
2023-05-17T03:44:39.254Z,5.85
2023-05-17T03:47:10.212Z,4.90
2023-05-17T03:49:41.168Z,5.00
2023-05-17T03:52:12.054Z,5.10
2023-05-17T03:54:42.856Z,4.68
2023-05-17T03:57:14.280Z,5.00
2023-05-17T03:59:48.079Z,5.22
2023-05-17T04:02:21.337Z,5.18
2023-05-17T04:04:53.460Z,4.45
2023-05-17T04:07:25.310Z,5.80
2023-05-17T04:09:59.159Z,4.95
2023-05-17T04:12:36.336Z,5.40
2023-05-17T04:15:10.926Z,4.88
2023-05-17T04:17:43.619Z,4.63
2023-05-17T04:20:16.004Z,5.32
2023-05-17T04:22:47.176Z,4.97
2023-05-17T04:25:19.191Z,5.65
2023-05-17T04:27:51.410Z,6.90
2023-05-17T04:30:26.403Z,8.95
2023-05-17T04:32:57.287Z,8.90
2023-05-17T04:35:28.656Z,11.57
2023-05-17T04:38:00.153Z,12.20
2023-05-17T04:40:31.334Z,9.80
2023-05-17T04:43:03.131Z,11.10
2023-05-17T04:45:38.097Z,11.27
2023-05-17T04:48:09.387Z,11.57
2023-05-17T04:50:40.410Z,14.23
2023-05-17T04:53:11.506Z,11.70
2023-05-17T04:55:42.438Z,8.55
2023-05-17T04:58:13.516Z,7.18
2023-05-17T05:00:47.899Z,7.32
2023-05-17T05:03:18.888Z,6.75
2023-05-17T05:05:50.514Z,9.82
2023-05-17T05:08:21.688Z,9.52
2023-05-17T05:10:52.710Z,8.85
2023-05-17T05:13:25.852Z,6.75
2023-05-17T05:16:00.870Z,6.75
2023-05-17T05:18:32.781Z,5.55
2023-05-17T05:21:04.018Z,5.72
2023-05-17T05:23:35.230Z,4.65
2023-05-17T05:26:07.325Z,6.63
2023-05-17T05:28:38.374Z,4.85
2023-05-17T05:31:12.025Z,5.93
2023-05-17T05:33:48.202Z,7.93
2023-05-17T05:36:19.179Z,6.18
2023-05-17T05:38:54.138Z,6.43
2023-05-17T05:41:25.721Z,8.02
2023-05-17T05:43:56.606Z,5.47
2023-05-17T05:46:31.200Z,7.32
2023-05-17T05:49:02.782Z,4.60
2023-05-17T05:51:35.737Z,5.60
2023-05-17T05:54:06.716Z,7.82
2023-05-17T05:56:37.850Z,5.35
2023-05-17T05:59:10.216Z,5.55
2023-05-17T06:01:44.354Z,6.32
2023-05-17T06:04:15.185Z,6.72
2023-05-17T06:06:46.220Z,5.60
2023-05-17T06:09:17.354Z,5.05
2023-05-17T06:11:48.132Z,4.47
2023-05-17T06:14:19.059Z,4.90
2023-05-17T06:16:52.535Z,5.03
2023-05-17T06:19:23.372Z,4.57
2023-05-17T06:21:54.353Z,4.80
2023-05-17T06:24:25.185Z,3.50
2023-05-17T06:26:56.125Z,4.82
2023-05-17T06:29:27.500Z,4.82
2023-05-17T06:32:01.129Z,4.90
2023-05-17T06:34:34.536Z,5.07
2023-05-17T06:37:05.542Z,4.97
2023-05-17T06:39:36.290Z,3.40
2023-05-17T06:42:07.892Z,4.13
2023-05-17T06:44:40.279Z,7.35
2023-05-17T06:47:14.036Z,3.45
2023-05-17T06:49:44.845Z,4.05
2023-05-17T06:52:15.705Z,3.78
2023-05-17T06:54:46.686Z,2.80
2023-05-17T06:57:17.734Z,3.28
2023-05-17T06:59:48.849Z,3.92
2023-05-17T07:02:22.530Z,3.05
2023-05-17T07:04:53.417Z,3.60
2023-05-17T07:07:24.332Z,3.58
2023-05-17T07:09:55.145Z,3.33
2023-05-17T07:12:25.990Z,4.20
2023-05-17T07:14:56.790Z,3.80
2023-05-17T07:17:30.282Z,2.85
2023-05-17T07:20:01.424Z,3.47
2023-05-17T07:22:37.187Z,4.15
2023-05-17T07:25:09.376Z,4.30
2023-05-17T07:27:40.385Z,3.60
2023-05-17T07:30:12.538Z,2.75
2023-05-17T07:32:46.045Z,2.78
2023-05-17T07:35:17.192Z,2.95
2023-05-17T07:37:49.286Z,3.42
2023-05-17T07:40:20.284Z,3.03
2023-05-17T07:42:51.286Z,3.15
2023-05-17T07:45:22.561Z,3.00
2023-05-17T07:47:56.219Z,3.05
2023-05-17T07:50:28.144Z,3.13
2023-05-17T07:52:58.955Z,3.40
2023-05-17T07:55:30.057Z,3.72
2023-05-17T07:58:01.063Z,4.20
2023-05-17T08:00:33.677Z,5.97
2023-05-17T08:03:07.652Z,4.50
2023-05-17T08:05:38.923Z,4.30
2023-05-17T08:08:09.795Z,4.75
2023-05-17T08:10:40.668Z,3.92
2023-05-17T08:13:11.486Z,3.40
2023-05-17T08:15:42.366Z,3.30
2023-05-17T08:18:15.905Z,3.85
2023-05-17T08:20:49.402Z,4.05
2023-05-17T08:23:20.175Z,3.08
2023-05-17T08:25:55.916Z,4.20
2023-05-17T08:28:26.774Z,3.22
2023-05-17T08:30:57.751Z,3.70
2023-05-17T08:33:32.325Z,3.90
2023-05-17T08:36:08.303Z,3.72
2023-05-17T08:38:39.191Z,4.10
2023-05-17T08:41:10.065Z,4.25
2023-05-17T08:43:41.220Z,3.90
2023-05-17T08:46:13.463Z,3.33
2023-05-17T08:48:50.798Z,2.95
2023-05-17T08:51:23.171Z,4.20
2023-05-17T08:53:54.002Z,4.72
2023-05-17T08:56:28.609Z,3.30
2023-05-17T08:59:00.683Z,3.30
2023-05-17T09:01:33.462Z,2.58
2023-05-17T09:04:08.503Z,2.20
2023-05-17T09:06:39.769Z,2.75
2023-05-17T09:09:10.637Z,3.00
2023-05-17T09:11:42.030Z,2.47
2023-05-17T09:14:12.810Z,1.98
2023-05-17T09:16:44.371Z,2.00
2023-05-17T09:19:21.097Z,2.60
2023-05-17T09:21:52.534Z,2.40
2023-05-17T09:24:31.250Z,2.78
2023-05-17T09:27:06.322Z,3.30
2023-05-17T09:32:16.458Z,2.85
2023-05-17T09:34:51.562Z,2.10
2023-05-17T09:37:23.114Z,3.35
2023-05-17T09:39:53.988Z,2.85
2023-05-17T09:42:29.549Z,3.10
2023-05-17T09:45:02.065Z,2.90
2023-05-17T09:47:37.912Z,2.85
2023-05-17T09:50:22.037Z,3.05
2023-05-17T09:52:54.608Z,2.90
2023-05-17T09:55:30.181Z,2.80
2023-05-17T09:58:06.765Z,2.47
2023-05-17T10:00:37.714Z,2.60
2023-05-17T10:03:10.750Z,2.67
2023-05-17T10:05:47.763Z,3.20
2023-05-17T10:08:21.066Z,3.60
2023-05-17T10:10:53.038Z,2.83
2023-05-17T10:13:27.019Z,2.65
2023-05-17T10:15:58.578Z,2.58
2023-05-17T10:18:30.465Z,2.60
2023-05-17T10:21:04.789Z,2.95
2023-05-17T10:23:36.896Z,3.47
2023-05-17T10:26:08.676Z,3.88
2023-05-17T10:28:40.571Z,4.63
2023-05-17T10:31:11.421Z,5.55
2023-05-17T10:33:44.675Z,5.80
2023-05-17T10:36:20.921Z,4.60
2023-05-17T10:38:51.948Z,4.38
2023-05-17T10:41:26.288Z,4.53
2023-05-17T10:43:58.721Z,5.95
2023-05-17T10:46:32.734Z,3.60
2023-05-17T10:49:05.014Z,3.25
2023-05-17T10:51:40.137Z,4.30
2023-05-17T10:56:44.711Z,2.90
2023-05-17T10:59:23.007Z,3.15
2023-05-17T11:02:12.150Z,3.65
2023-05-17T11:04:45.346Z,3.10
2023-05-17T11:07:29.707Z,3.38
2023-05-17T11:10:09.031Z,4.55
2023-05-17T11:12:42.361Z,4.28
2023-05-17T11:15:14.702Z,4.45
2023-05-17T11:17:54.582Z,3.47
2023-05-17T11:20:37.607Z,4.38
2023-05-17T11:23:20.025Z,4.50
2023-05-17T11:25:54.248Z,4.15
2023-05-17T11:28:26.739Z,4.50
2023-05-17T11:31:04.178Z,4.28
2023-05-17T11:33:42.506Z,4.20
2023-05-17T11:36:23.590Z,5.97
2023-05-17T11:39:15.866Z,3.92
2023-05-17T11:41:53.173Z,4.45
2023-05-17T11:44:30.929Z,5.10
2023-05-17T11:47:06.393Z,4.63
2023-05-17T11:49:40.191Z,3.92
2023-05-17T11:52:11.972Z,4.07
2023-05-17T11:54:46.441Z,3.30
2023-05-17T11:57:18.664Z,3.72
2023-05-17T11:59:49.417Z,4.05
2023-05-17T12:02:33.894Z,3.20
2023-05-17T12:05:04.842Z,3.53
2023-05-17T12:07:37.848Z,4.15
2023-05-17T12:10:16.835Z,3.30
2023-05-17T12:12:48.098Z,4.05
2023-05-17T12:15:22.532Z,5.25
2023-05-17T12:17:55.623Z,4.90
2023-05-17T12:20:27.007Z,4.43
2023-05-17T12:22:58.943Z,4.88
2023-05-17T12:25:32.439Z,5.22
2023-05-17T12:28:27.160Z,4.47
2023-05-17T12:31:01.504Z,4.97
2023-05-17T12:33:35.631Z,4.72
2023-05-17T12:36:07.731Z,5.13
2023-05-17T12:38:40.461Z,4.25
2023-05-17T12:41:15.599Z,5.22
2023-05-17T12:46:20.092Z,5.93
2023-05-17T12:48:52.916Z,5.20
2023-05-17T12:51:24.817Z,4.43
2023-05-17T12:53:57.195Z,6.20
2023-05-17T12:56:32.263Z,5.28
2023-05-17T13:01:42.046Z,5.32
2023-05-17T13:04:13.516Z,5.80
2023-05-17T13:06:52.174Z,5.80
2023-05-17T13:09:24.753Z,6.07
2023-05-17T13:11:59.495Z,6.47
2023-05-17T13:14:44.361Z,4.43
2023-05-17T13:17:21.294Z,4.82
2023-05-17T13:19:52.284Z,4.65
2023-05-17T13:22:24.147Z,4.55
2023-05-17T13:24:54.961Z,5.80
2023-05-17T13:27:28.385Z,6.68
2023-05-17T13:29:59.255Z,5.35
2023-05-17T13:32:30.311Z,5.03
2023-05-17T13:35:02.470Z,4.80
2023-05-17T13:37:35.420Z,5.78
2023-05-17T13:40:06.535Z,5.10
2023-05-17T13:42:40.288Z,5.75
2023-05-17T13:45:13.977Z,6.78
2023-05-17T13:47:44.990Z,5.93
2023-05-17T13:50:17.560Z,6.38
2023-05-17T13:52:48.354Z,6.13
2023-05-17T13:55:19.265Z,4.80
2023-05-17T13:57:54.451Z,5.90
2023-05-17T14:00:26.450Z,5.03
2023-05-17T14:02:57.483Z,5.82
2023-05-17T14:05:28.505Z,6.55
2023-05-17T14:07:59.694Z,7.65
2023-05-17T14:10:30.705Z,7.60
2023-05-17T14:13:04.686Z,6.55
2023-05-17T14:15:38.555Z,8.00
2023-05-17T14:18:13.589Z,6.65
2023-05-17T14:20:44.663Z,5.28
2023-05-17T14:23:15.636Z,5.55
2023-05-17T14:25:49.374Z,5.57
2023-05-17T14:28:22.817Z,5.50
2023-05-17T14:30:53.735Z,6.53
2023-05-17T14:33:24.749Z,6.88
2023-05-17T14:35:55.885Z,6.20
2023-05-17T14:38:26.712Z,5.80
2023-05-17T14:40:57.587Z,6.03
2023-05-17T14:43:31.293Z,6.97
2023-05-17T14:46:01.964Z,6.90
2023-05-17T14:48:34.217Z,6.93
2023-05-17T14:51:05.199Z,7.50
2023-05-17T14:53:36.237Z,7.70
2023-05-17T14:56:07.268Z,6.40
2023-05-17T14:58:40.792Z,6.15
2023-05-17T15:01:11.618Z,6.95
2023-05-17T15:03:42.639Z,5.15
2023-05-17T15:06:13.542Z,5.10
2023-05-17T15:08:44.427Z,6.35
2023-05-17T15:11:15.441Z,6.35
2023-05-17T15:13:49.240Z,8.00
2023-05-17T15:16:20.241Z,6.78
2023-05-17T15:18:53.371Z,6.15
2023-05-17T15:21:26.416Z,6.30
2023-05-17T15:23:58.145Z,5.70
2023-05-17T15:26:29.438Z,4.57
2023-05-17T15:29:02.856Z,5.18
2023-05-17T15:31:33.843Z,6.28
2023-05-17T15:34:05.220Z,5.60
2023-05-17T15:36:36.985Z,5.75
2023-05-17T15:39:08.106Z,6.13
2023-05-17T15:41:40.131Z,4.93
2023-05-17T15:44:13.854Z,4.70
2023-05-17T15:46:44.923Z,4.47
2023-05-17T15:49:17.918Z,4.53
2023-05-17T15:51:50.287Z,4.82
2023-05-17T15:54:21.112Z,4.82
2023-05-17T15:56:51.915Z,5.30
2023-05-17T15:59:25.271Z,5.32
2023-05-17T16:01:56.459Z,6.40
2023-05-17T16:04:27.312Z,4.80
2023-05-17T16:06:59.713Z,4.70
2023-05-17T16:09:30.601Z,5.10
2023-05-17T16:12:01.481Z,4.63
2023-05-17T16:14:36.264Z,6.53
2023-05-17T16:17:07.465Z,4.60
2023-05-17T16:19:38.384Z,4.30
2023-05-17T16:22:09.877Z,5.35
2023-05-17T16:24:40.936Z,5.10
2023-05-17T16:27:11.871Z,8.50
2023-05-17T16:29:45.328Z,7.60
2023-05-17T16:32:16.311Z,8.15
2023-05-17T16:34:47.193Z,6.43
2023-05-17T16:37:18.108Z,7.63
2023-05-17T16:39:48.923Z,5.75
2023-05-17T16:42:20.688Z,7.43
2023-05-17T16:44:54.233Z,7.57
2023-05-17T16:47:28.139Z,6.85
2023-05-17T16:50:01.682Z,6.03
2023-05-17T16:52:36.072Z,7.35
2023-05-17T16:55:07.324Z,5.63
2023-05-17T16:57:38.184Z,5.78
2023-05-17T17:03:16.788Z,5.88
2023-05-17T17:08:52.739Z,6.07
2023-05-17T17:11:24.745Z,5.95
2023-05-17T17:17:00.967Z,5.95
2023-05-17T17:19:34.640Z,4.50
2023-05-17T17:22:06.054Z,4.28
2023-05-17T17:24:37.353Z,4.85
2023-05-17T17:27:08.734Z,4.57
2023-05-17T17:29:39.526Z,4.32
2023-05-17T17:32:11.907Z,4.80
2023-05-17T17:34:45.658Z,3.97
2023-05-17T17:37:16.619Z,3.88
2023-05-17T17:39:47.421Z,3.63
2023-05-17T17:42:18.282Z,3.50
2023-05-17T17:44:49.050Z,4.60
2023-05-17T17:47:20.249Z,4.18
2023-05-17T17:49:53.635Z,4.30
2023-05-17T17:52:24.549Z,4.38
2023-05-17T17:54:55.409Z,5.57
2023-05-17T17:57:26.307Z,6.43
2023-05-17T17:59:58.405Z,6.35
2023-05-17T18:02:29.329Z,5.30
2023-05-17T18:05:02.945Z,4.93
2023-05-17T18:10:05.955Z,3.65
2023-05-17T18:12:37.023Z,4.45
2023-05-17T18:15:08.859Z,3.67
2023-05-17T18:17:39.714Z,3.72
2023-05-17T18:20:13.923Z,4.20
2023-05-17T18:22:44.848Z,3.85
2023-05-17T18:25:15.805Z,4.03
2023-05-17T18:27:46.741Z,4.00
2023-05-17T18:30:17.837Z,3.42
2023-05-17T18:32:49.092Z,4.25
2023-05-17T18:35:22.684Z,3.88
2023-05-17T18:37:53.667Z,3.30
2023-05-17T18:40:24.544Z,4.75
2023-05-17T18:42:55.465Z,4.53
2023-05-17T18:45:26.380Z,3.90
2023-05-17T18:47:57.408Z,3.30
2023-05-17T18:50:31.258Z,3.78
2023-05-17T18:53:02.946Z,3.80
2023-05-17T18:55:33.803Z,3.55
2023-05-17T18:58:04.965Z,3.78
2023-05-17T19:00:36.028Z,4.00
2023-05-17T19:03:07.427Z,4.25
2023-05-17T19:05:40.916Z,5.10
2023-05-17T19:08:11.806Z,6.30
2023-05-17T19:10:42.808Z,5.70
2023-05-17T19:13:14.042Z,5.35
2023-05-17T19:15:45.234Z,3.75
2023-05-17T19:18:16.892Z,4.28
2023-05-17T19:20:51.236Z,4.55
2023-05-17T19:23:22.158Z,4.13
2023-05-17T19:25:53.852Z,4.50
2023-05-17T19:28:24.843Z,4.70
2023-05-17T19:30:56.076Z,5.03
2023-05-17T19:33:27.408Z,5.38
2023-05-17T19:36:01.096Z,5.97
2023-05-17T19:38:33.613Z,6.40
2023-05-17T19:41:07.826Z,7.13
2023-05-17T19:43:39.002Z,6.75
2023-05-17T19:46:11.946Z,6.93
2023-05-17T19:48:45.891Z,7.22
2023-05-17T19:51:20.665Z,7.45
2023-05-17T19:53:53.535Z,7.57
2023-05-17T19:56:26.670Z,7.72
2023-05-17T19:58:57.740Z,7.35
2023-05-17T20:01:28.741Z,8.23
2023-05-17T20:03:59.816Z,8.35
2023-05-17T20:06:33.522Z,8.45
2023-05-17T20:09:04.683Z,7.85
2023-05-17T20:11:35.933Z,8.25
2023-05-17T20:14:07.157Z,8.07
2023-05-17T20:16:38.129Z,8.00
2023-05-17T20:19:09.032Z,8.50
2023-05-17T20:21:42.670Z,9.30
2023-05-17T20:24:13.759Z,8.65
2023-05-17T20:26:47.169Z,8.68
2023-05-17T20:29:18.065Z,8.73
2023-05-17T20:31:49.012Z,8.68
2023-05-17T20:34:19.851Z,9.38
2023-05-17T20:36:53.858Z,8.38
2023-05-17T20:39:28.229Z,8.52
2023-05-17T20:42:01.576Z,8.68
2023-05-17T20:44:33.610Z,7.55
2023-05-17T20:47:06.366Z,7.57
2023-05-17T20:49:37.235Z,8.90
2023-05-17T20:52:10.726Z,7.38
2023-05-17T20:54:41.585Z,7.38
2023-05-17T20:57:12.442Z,7.53
2023-05-17T20:59:43.201Z,7.15
2023-05-17T21:02:14.260Z,6.88
2023-05-17T21:04:45.058Z,4.95
2023-05-17T21:07:20.239Z,5.22
2023-05-17T21:09:51.013Z,5.75
2023-05-17T21:12:23.813Z,4.72
2023-05-17T21:15:14.500Z,5.00
2023-05-17T21:17:45.937Z,5.00
2023-05-17T21:20:17.448Z,4.05
2023-05-17T21:22:50.938Z,4.55
2023-05-17T21:25:21.902Z,4.38
2023-05-17T21:27:53.142Z,5.18
2023-05-17T21:30:24.223Z,5.18
2023-05-17T21:32:55.195Z,5.30
2023-05-17T21:35:26.416Z,5.75
2023-05-17T21:38:00.001Z,5.18
2023-05-17T21:40:31.183Z,4.60
2023-05-17T21:43:02.234Z,5.07
2023-05-17T21:45:33.159Z,4.18
2023-05-17T21:48:04.221Z,4.00
2023-05-17T21:50:35.128Z,4.43
2023-05-17T21:53:08.701Z,3.55
2023-05-17T21:55:56.340Z,3.35
2023-05-17T21:58:30.922Z,3.08
2023-05-17T22:01:01.976Z,3.10
2023-05-17T22:03:33.247Z,3.33
2023-05-17T22:06:04.738Z,3.47
2023-05-17T22:08:38.309Z,3.25
2023-05-17T22:11:09.589Z,3.80
2023-05-17T22:13:42.559Z,3.38
2023-05-17T22:16:14.355Z,3.58
2023-05-17T22:18:45.739Z,3.38
2023-05-17T22:21:17.239Z,3.58
2023-05-17T22:23:50.971Z,3.80
2023-05-17T22:26:22.154Z,3.45
2023-05-17T22:28:54.844Z,3.70
2023-05-17T22:31:26.716Z,3.78
2023-05-17T22:33:57.727Z,3.75
2023-05-17T22:36:28.523Z,4.53
2023-05-17T22:39:02.369Z,4.13
2023-05-17T22:41:33.160Z,3.72
2023-05-17T22:44:04.203Z,4.25
2023-05-17T22:46:35.495Z,4.10
2023-05-17T22:49:06.345Z,4.25
2023-05-17T22:51:37.384Z,4.20
2023-05-17T22:54:10.985Z,4.28
2023-05-17T22:56:41.910Z,4.50
2023-05-17T22:59:12.692Z,4.05
2023-05-17T23:01:43.677Z,4.28
2023-05-17T23:04:14.713Z,4.75
2023-05-17T23:06:45.571Z,4.22
2023-05-17T23:09:19.096Z,4.28
2023-05-17T23:11:50.352Z,4.18
2023-05-17T23:14:22.032Z,4.00
2023-05-17T23:16:53.224Z,4.78
2023-05-17T23:19:24.120Z,3.97
2023-05-17T23:21:55.105Z,3.92
2023-05-17T23:24:28.649Z,4.03
2023-05-17T23:26:59.389Z,4.20
2023-05-17T23:29:30.160Z,4.28
2023-05-17T23:32:01.114Z,5.55
2023-05-17T23:34:32.097Z,4.47
2023-05-17T23:37:03.260Z,4.32
2023-05-17T23:39:36.809Z,4.03
2023-05-17T23:42:10.568Z,4.80
2023-05-17T23:44:42.366Z,4.57
2023-05-17T23:47:13.422Z,4.70
2023-05-17T23:49:44.268Z,4.30
2023-05-17T23:52:15.377Z,4.53
2023-05-17T23:54:50.119Z,4.63
2023-05-17T23:57:20.989Z,4.50
2023-05-17T23:59:51.776Z,4.50
